Time;durP1;ratioP1;P1;durP2;ratioP2;P2;SDS_P1;SDS_P2;PMS_P1;PMS_P2;Temp;Humidity;BMP_temperature;BMP_pressure;BME280_temperature;BME280_humidity;BME280_pressure;Samples;Min_cycle;Max_cycle;Signal;HPM_P1;HPM_P2
2023/05/02 00:01:52;;;;;;;3.38;2.03;;;12.50;99.90;;;;;;5026654;28;20025;-84
2023/05/02 00:04:18;;;;;;;3.17;2.03;;;12.40;99.90;;;;;;5024143;28;20050;-83
2023/05/02 00:06:47;;;;;;;2.33;1.85;;;12.40;99.90;;;;;;5001192;28;20026;-82
2023/05/02 00:09:14;;;;;;;3.42;2.30;;;12.30;99.90;;;;;;5022206;28;20044;-83
2023/05/02 00:11:41;;;;;;;2.45;1.67;;;12.20;99.90;;;;;;5016307;28;20057;-83
2023/05/02 00:14:07;;;;;;;4.07;2.40;;;12.10;99.90;;;;;;5016500;28;20041;-82
2023/05/02 00:16:33;;;;;;;4.07;2.10;;;12.00;99.90;;;;;;5030319;28;20026;-83
2023/05/02 00:18:59;;;;;;;3.75;3.08;;;11.90;99.90;;;;;;5026921;28;20036;-81
2023/05/02 00:21:28;;;;;;;3.75;2.38;;;11.90;99.90;;;;;;5022953;28;20474;-82
2023/05/02 00:23:58;;;;;;;3.38;2.58;;;11.80;99.90;;;;;;5016264;28;20034;-81
2023/05/02 00:26:24;;;;;;;3.87;2.60;;;11.70;99.90;;;;;;5034198;28;20041;-82
2023/05/02 00:28:50;;;;;;;3.38;2.63;;;11.60;99.90;;;;;;5035491;28;20034;-82
2023/05/02 00:31:16;;;;;;;4.55;2.97;;;11.60;99.90;;;;;;5026464;28;20041;-84
2023/05/02 00:33:42;;;;;;;4.55;3.25;;;11.50;99.90;;;;;;5016796;28;20029;-83
2023/05/02 00:36:19;;;;;;;4.70;3.65;;;11.40;99.90;;;;;;5027836;28;20025;-82
2023/05/02 00:38:45;;;;;;;3.88;3.33;;;11.30;99.90;;;;;;5017673;28;20034;-82
2023/05/02 00:41:11;;;;;;;4.45;2.58;;;11.30;99.90;;;;;;5026874;28;20049;-82
2023/05/02 00:43:40;;;;;;;5.00;3.65;;;11.30;99.90;;;;;;5028595;28;20042;-82
2023/05/02 00:46:07;;;;;;;6.25;2.92;;;11.20;99.90;;;;;;5025634;28;20078;-82
2023/05/02 00:48:34;;;;;;;4.70;3.47;;;11.10;1.00;;;;;;5038288;28;20034;-83
2023/05/02 00:51:04;;;;;;;4.50;3.50;;;11.10;1.00;;;;;;5040478;28;20040;-83
2023/05/02 00:53:31;;;;;;;4.10;3.13;;;11.00;1.00;;;;;;5028830;28;20048;-82
2023/05/02 00:55:58;;;;;;;3.42;2.97;;;10.90;1.00;;;;;;5041803;28;20049;-82
2023/05/02 00:58:25;;;;;;;5.07;3.13;;;10.80;1.00;;;;;;5017248;28;20034;-82
2023/05/02 01:01:06;;;;;;;4.45;3.10;;;10.70;1.00;;;;;;5018467;28;20030;-82
2023/05/02 01:03:40;;;;;;;;;;;10.60;1.00;;;;;;5017418;28;20042;-82
2023/05/02 01:06:21;;;;;;;4.35;3.25;;;10.60;1.00;;;;;;5017020;28;19929;-81
2023/05/02 01:09:19;;;;;;;4.57;3.60;;;10.60;1.00;;;;;;5044109;28;20029;-82
2023/05/02 01:11:55;;;;;;;4.10;3.33;;;10.40;1.00;;;;;;5037682;28;20048;-82
2023/05/02 01:14:22;;;;;;;4.80;3.63;;;10.40;1.00;;;;;;5019175;28;20041;-81
2023/05/02 01:16:50;;;;;;;9.27;3.88;;;10.30;1.00;;;;;;5030019;28;20029;-82
2023/05/02 01:19:32;;;;;;;4.07;2.95;;;10.30;1.00;;;;;;5025887;28;20036;-81
2023/05/02 01:22:03;;;;;;;4.75;3.00;;;10.30;1.00;;;;;;5029420;28;20040;-81
2023/05/02 01:24:34;;;;;;;;;;;10.30;1.00;;;;;;5045260;28;20056;-82
2023/05/02 01:27:17;;;;;;;5.32;3.60;;;10.20;1.00;;;;;;5029668;28;19976;-81
2023/05/02 01:29:46;;;;;;;5.15;4.30;;;10.20;1.00;;;;;;5034326;28;20040;-82
2023/05/02 01:32:15;;;;;;;5.05;4.55;;;10.10;1.00;;;;;;5039681;28;20374;-82
2023/05/02 01:34:43;;;;;;;5.43;3.88;;;10.10;1.00;;;;;;5037428;28;20042;-82
2023/05/02 01:37:12;;;;;;;5.22;4.28;;;10.10;1.00;;;;;;5021550;28;20030;-81
2023/05/02 01:39:40;;;;;;;7.03;4.57;;;10.00;1.00;;;;;;5034730;28;20040;-82
2023/05/02 01:42:06;;;;;;;5.75;4.63;;;10.00;1.00;;;;;;5032112;28;20045;-82
2023/05/02 01:44:35;;;;;;;6.80;4.28;;;9.90;1.00;;;;;;5018128;28;20045;-82
2023/05/02 01:47:04;;;;;;;6.88;4.85;;;9.90;1.00;;;;;;5020018;28;20037;-82
2023/05/02 01:49:33;;;;;;;6.82;4.60;;;9.90;1.00;;;;;;5033088;28;20037;-82
2023/05/02 01:52:04;;;;;;;5.65;4.32;;;9.80;1.00;;;;;;5044941;28;20037;-82
2023/05/02 01:54:32;;;;;;;5.00;4.45;;;9.80;1.00;;;;;;5041532;28;20053;-82
2023/05/02 01:57:00;;;;;;;5.32;4.53;;;9.70;1.00;;;;;;5026873;28;20025;-82
2023/05/02 01:59:27;;;;;;;7.53;4.70;;;9.70;1.00;;;;;;5031751;28;20060;-82
2023/05/02 02:01:55;;;;;;;6.15;4.07;;;9.60;1.00;;;;;;5022887;28;20029;-82
2023/05/02 02:04:22;;;;;;;6.57;4.68;;;9.60;1.00;;;;;;5028348;28;20386;-82
2023/05/02 02:06:54;;;;;;;6.15;4.72;;;9.50;1.00;;;;;;5021906;28;20034;-81
2023/05/02 02:09:20;;;;;;;6.68;4.80;;;9.50;1.00;;;;;;5028703;28;20049;-81
2023/05/02 02:11:55;;;;;;;7.53;5.22;;;9.50;1.00;;;;;;5018819;28;20335;-81
2023/05/02 02:14:26;;;;;;;6.10;4.63;;;9.40;1.00;;;;;;5028483;28;20045;-82
2023/05/02 02:16:59;;;;;;;7.82;4.65;;;9.40;1.00;;;;;;5020289;28;20180;-81
2023/05/02 02:19:26;;;;;;;4.95;4.45;;;9.30;1.00;;;;;;5045380;28;20029;-82
2023/05/02 02:21:54;;;;;;;9.05;4.80;;;9.20;1.00;;;;;;5032060;28;20235;-82
2023/05/02 02:24:22;;;;;;;7.00;5.10;;;9.10;1.00;;;;;;5034011;28;20048;-82
2023/05/02 02:26:49;;;;;;;9.45;6.20;;;9.10;1.00;;;;;;5027478;28;20037;-82
2023/05/02 02:29:16;;;;;;;9.23;7.05;;;9.20;1.00;;;;;;5028713;28;20376;-82
2023/05/02 02:31:42;;;;;;;11.15;6.63;;;9.20;1.00;;;;;;5040839;28;20025;-82
2023/05/02 02:34:08;;;;;;;9.57;7.60;;;9.10;1.00;;;;;;5039400;28;20041;-82
2023/05/02 02:37:15;;;;;;;9.32;6.90;;;9.20;1.00;;;;;;5034911;28;20370;-82
2023/05/02 02:40:07;;;;;;;7.75;6.05;;;9.20;1.00;;;;;;5026921;28;20033;-83
2023/05/02 02:42:46;;;;;;;8.80;6.75;;;9.20;1.00;;;;;;5020387;28;20049;-82
2023/05/02 02:45:37;;;;;;;8.38;6.75;;;9.10;1.00;;;;;;5026352;28;20045;-81
2023/05/02 02:48:32;;;;;;;8.15;6.53;;;9.10;1.00;;;;;;5026257;28;20041;-82
2023/05/02 02:51:01;;;;;;;8.38;7.57;;;9.00;1.00;;;;;;5028695;28;20056;-81
2023/05/02 02:53:51;;;;;;;10.18;7.55;;;9.00;1.00;;;;;;5029943;28;20033;-81
2023/05/02 02:56:40;;;;;;;8.85;6.93;;;8.90;1.00;;;;;;5026415;28;20033;-82
2023/05/02 02:59:26;;;;;;;7.93;6.43;;;8.80;1.00;;;;;;5028151;28;20038;-82
2023/05/02 03:02:08;;;;;;;7.03;6.32;;;8.70;1.00;;;;;;5025005;28;20363;-82
2023/05/02 03:04:38;;;;;;;7.35;6.43;;;8.60;1.00;;;;;;5022012;28;20081;-83
2023/05/02 03:07:05;;;;;;;12.75;7.38;;;8.50;1.00;;;;;;5041476;28;20355;-82
2023/05/02 03:09:45;;;;;;;10.55;7.85;;;8.50;1.00;;;;;;5038272;28;20030;-82
2023/05/02 03:12:15;;;;;;;9.95;7.15;;;8.40;1.00;;;;;;5025583;28;20048;-82
2023/05/02 03:14:43;;;;;;;7.50;5.85;;;8.40;1.00;;;;;;5022931;28;20042;-82
2023/05/02 03:17:09;;;;;;;8.50;6.75;;;8.10;1.00;;;;;;5035086;28;20025;-81
2023/05/02 03:19:36;;;;;;;9.98;8.13;;;8.00;1.00;;;;;;5048629;28;20041;-82
2023/05/02 03:22:04;;;;;;;10.55;8.32;;;8.10;8.40;;;;;;5035138;28;20041;-82
2023/05/02 03:24:31;;;;;;;11.68;8.48;;;8.10;5.30;;;;;;5038952;28;20030;-82
2023/05/02 03:26:58;;;;;;;10.07;7.53;;;8.10;7.30;;;;;;5037627;28;20587;-82
2023/05/02 03:29:29;;;;;;;9.77;7.05;;;7.90;4.00;;;;;;5037780;28;20040;-82
2023/05/02 03:31:55;;;;;;;10.50;7.60;;;7.70;12.60;;;;;;5026264;28;20066;-82
2023/05/02 03:34:22;;;;;;;8.90;6.90;;;7.60;21.90;;;;;;5020896;28;20469;-81
2023/05/02 03:36:51;;;;;;;11.25;7.97;;;7.40;30.70;;;;;;5030902;28;20045;-82
2023/05/02 03:39:17;;;;;;;11.30;7.68;;;7.30;52.90;;;;;;5025047;28;20048;-81
2023/05/02 03:41:45;;;;;;;9.63;7.35;;;7.30;74.60;;;;;;5039270;28;20046;-81
2023/05/02 03:44:14;;;;;;;8.63;7.35;;;7.30;76.30;;;;;;5049597;28;20397;-81
2023/05/02 03:46:41;;;;;;;10.98;6.78;;;7.20;77.90;;;;;;5055721;28;20117;-83
2023/05/02 03:49:10;;;;;;;10.90;7.35;;;7.20;82.90;;;;;;5062810;28;20018;-83
2023/05/02 03:51:38;;;;;;;9.80;7.28;;;7.20;85.90;;;;;;5038943;28;20052;-86
2023/05/02 03:54:05;;;;;;;10.82;6.95;;;7.20;91.80;;;;;;5049367;28;20047;-86
2023/05/02 03:56:32;;;;;;;9.75;6.60;;;7.20;86.90;;;;;;5047067;28;20034;-86
2023/05/02 03:59:14;;;;;;;7.53;5.50;;;7.10;75.20;;;;;;5050723;28;20037;-85
2023/05/02 04:01:40;;;;;;;8.50;6.57;;;7.00;67.10;;;;;;5045856;28;20029;-85
2023/05/02 04:04:08;;;;;;;7.22;6.25;;;7.00;67.80;;;;;;5058409;28;20049;-84
2023/05/02 04:06:40;;;;;;;10.23;6.85;;;6.90;81.60;;;;;;5031909;28;20033;-84
2023/05/02 04:09:09;;;;;;;8.90;6.75;;;6.90;89.80;;;;;;5058563;28;20044;-84
2023/05/02 04:11:48;;;;;;;11.43;8.20;;;6.80;92.70;;;;;;5040255;28;20048;-83
2023/05/02 04:14:15;;;;;;;15.32;8.15;;;7.10;99.20;;;;;;5048753;28;20057;-84
2023/05/02 04:16:47;;;;;;;10.48;6.95;;;7.10;92.00;;;;;;5040969;28;20044;-84
2023/05/02 04:19:15;;;;;;;10.05;7.05;;;7.10;80.80;;;;;;5047540;28;20038;-83
2023/05/02 04:21:41;;;;;;;8.70;6.43;;;7.20;53.30;;;;;;5048720;28;20360;-87
2023/05/02 04:24:08;;;;;;;9.63;6.05;;;7.20;38.40;;;;;;5045208;28;20049;-84
2023/05/02 04:26:36;;;;;;;8.52;6.78;;;7.20;34.70;;;;;;5051876;28;20057;-85
2023/05/02 04:29:07;;;;;;;8.82;6.57;;;7.30;30.10;;;;;;5041600;28;20117;-85
2023/05/02 04:31:34;;;;;;;9.93;6.25;;;7.30;22.10;;;;;;5040309;28;20030;-88
2023/05/02 04:34:00;;;;;;;9.60;6.80;;;7.40;18.80;;;;;;5044138;28;20522;-89
2023/05/02 04:36:33;;;;;;;9.98;7.05;;;7.50;7.50;;;;;;5033387;28;20063;-86
2023/05/02 04:39:03;;;;;;;8.77;6.03;;;7.50;1.00;;;;;;5032725;28;20045;-89
2023/05/02 04:41:32;;;;;;;11.27;8.30;;;7.60;1.00;;;;;;5033940;28;20034;-89
2023/05/02 04:44:04;;;;;;;13.15;8.90;;;7.60;1.00;;;;;;5044410;28;20048;-89
2023/05/02 04:46:30;;;;;;;15.27;8.52;;;7.70;1.00;;;;;;5043113;28;20526;-88
2023/05/02 04:48:56;;;;;;;11.25;7.63;;;7.90;1.00;;;;;;5029956;28;20045;-90
2023/05/02 04:51:23;;;;;;;9.35;7.63;;;7.90;1.00;;;;;;5036878;28;20363;-89
2023/05/02 04:53:50;;;;;;;12.00;9.05;;;7.90;1.00;;;;;;5030247;28;20033;-90
2023/05/02 04:56:16;;;;;;;11.93;8.73;;;8.10;1.00;;;;;;5032682;28;20060;-88
2023/05/02 04:58:42;;;;;;;12.13;8.43;;;8.20;1.00;;;;;;5031214;28;20045;-89
2023/05/02 05:01:10;;;;;;;10.70;8.68;;;8.40;1.00;;;;;;5032889;28;20041;-91
2023/05/02 05:03:37;;;;;;;9.43;7.30;;;8.50;1.00;;;;;;5030814;28;20053;-90
2023/05/02 05:06:04;;;;;;;9.95;7.57;;;8.70;1.00;;;;;;5042791;28;20046;-90
2023/05/02 05:08:31;;;;;;;10.55;7.95;;;8.90;1.00;;;;;;5027361;28;20025;-89
2023/05/02 05:10:58;;;;;;;13.13;8.95;;;9.10;1.00;;;;;;5013848;28;20763;-85
2023/05/02 05:13:25;;;;;;;13.75;10.30;;;9.40;1.00;;;;;;5041844;28;20071;-86
2023/05/02 05:15:52;;;;;;;16.27;12.70;;;9.80;1.00;;;;;;5038860;28;20048;-84
2023/05/02 05:18:21;;;;;;;15.23;11.40;;;9.90;1.00;;;;;;5025681;28;20096;-84
2023/05/02 05:20:47;;;;;;;18.65;13.73;;;9.90;1.00;;;;;;5027309;28;20042;-85
2023/05/02 05:23:14;;;;;;;15.27;12.73;;;10.00;1.00;;;;;;5032573;28;20029;-85
2023/05/02 05:25:40;;;;;;;17.48;12.60;;;10.20;1.00;;;;;;5030894;28;20038;-89
2023/05/02 05:28:07;;;;;;;16.10;12.70;;;10.20;1.00;;;;;;5045574;28;20038;-87
2023/05/02 05:30:36;;;;;;;18.27;14.00;;;10.20;1.00;;;;;;5031954;28;20041;-86
2023/05/02 05:33:06;;;;;;;21.45;15.57;;;10.20;1.00;;;;;;5028183;28;20034;-87
2023/05/02 05:35:32;;;;;;;20.38;16.15;;;10.40;1.00;;;;;;5026324;28;20473;-87
2023/05/02 05:38:00;;;;;;;21.83;16.60;;;10.50;1.00;;;;;;5035271;28;20076;-86
2023/05/02 05:40:28;;;;;;;19.48;14.50;;;10.90;1.00;;;;;;5019032;28;20041;-86
2023/05/02 05:42:56;;;;;;;22.95;17.38;;;11.20;1.00;;;;;;5028068;28;20049;-86
2023/05/02 05:45:28;;;;;;;22.35;15.70;;;11.20;1.00;;;;;;5026071;28;20049;-87
2023/05/02 05:47:54;;;;;;;21.50;14.93;;;11.30;1.00;;;;;;5026297;28;20034;-86
2023/05/02 05:50:22;;;;;;;19.15;14.85;;;11.50;1.00;;;;;;5030544;28;20136;-86
2023/05/02 05:52:48;;;;;;;19.67;15.07;;;11.60;99.90;;;;;;5028571;28;20022;-86
2023/05/02 05:55:15;;;;;;;22.58;14.52;;;11.80;99.90;;;;;;5016763;28;20037;-88
2023/05/02 05:57:41;;;;;;;19.92;16.92;;;12.00;99.90;;;;;;5045958;28;20033;-90
2023/05/02 06:00:09;;;;;;;19.38;15.32;;;11.80;99.90;;;;;;5041609;28;20042;-88
2023/05/02 06:02:41;;;;;;;21.73;15.52;;;11.70;99.90;;;;;;5048240;28;20037;-86
2023/05/02 06:05:12;;;;;;;17.30;13.45;;;11.60;99.90;;;;;;5038732;28;20497;-87
2023/05/02 06:07:38;;;;;;;16.92;13.10;;;11.60;99.90;;;;;;5038762;28;20033;-81
2023/05/02 06:10:05;;;;;;;14.48;11.75;;;11.70;99.90;;;;;;5024556;28;20052;-78
2023/05/02 06:12:34;;;;;;;18.50;13.15;;;11.60;1.00;;;;;;5027499;28;20390;-80
2023/05/02 06:15:00;;;;;;;24.23;16.55;;;11.50;1.00;;;;;;5010343;28;20046;-82
2023/05/02 06:17:27;;;;;;;24.92;18.92;;;11.50;1.00;;;;;;5010712;28;20065;-81
2023/05/02 06:19:53;;;;;;;26.83;18.85;;;11.60;1.00;;;;;;5026834;28;20036;-84
2023/05/02 06:22:20;;;;;;;29.10;21.02;;;11.60;1.00;;;;;;5024510;28;20203;-81
2023/05/02 06:24:46;;;;;;;34.42;23.38;;;11.70;1.00;;;;;;5034776;28;20105;-81
2023/05/02 06:27:13;;;;;;;32.85;22.77;;;11.80;1.00;;;;;;5025296;28;20037;-81
2023/05/02 06:29:39;;;;;;;34.38;23.50;;;11.80;1.00;;;;;;5042378;28;20037;-81
2023/05/02 06:32:05;;;;;;;35.63;24.42;;;11.80;1.00;;;;;;5041857;28;20030;-81
2023/05/02 06:34:32;;;;;;;39.05;25.52;;;12.00;1.00;;;;;;5025803;28;20041;-80
2023/05/02 06:36:59;;;;;;;35.83;25.38;;;12.10;1.00;;;;;;5038905;28;20060;-80
2023/05/02 06:39:25;;;;;;;39.53;25.55;;;12.20;99.90;;;;;;5016959;28;20536;-81
2023/05/02 06:41:55;;;;;;;39.25;26.30;;;12.40;99.90;;;;;;5027158;28;20068;-82
2023/05/02 06:44:21;;;;;;;37.30;26.02;;;12.50;99.90;;;;;;5029713;28;20057;-80
2023/05/02 06:46:48;;;;;;;41.92;29.05;;;12.70;99.90;;;;;;5026435;28;20609;-82
2023/05/02 06:49:14;;;;;;;42.10;29.85;;;12.70;99.90;;;;;;5027634;28;20477;-80
2023/05/02 06:51:40;;;;;;;41.33;28.52;;;12.70;99.90;;;;;;5022809;28;20036;-82
2023/05/02 06:54:07;;;;;;;42.63;28.95;;;12.50;99.90;;;;;;5029945;28;20038;-81
2023/05/02 06:56:34;;;;;;;42.03;28.27;;;12.70;99.90;;;;;;5046509;28;20045;-81
2023/05/02 06:59:00;;;;;;;42.78;29.75;;;12.90;99.90;;;;;;5040760;28;20029;-81
2023/05/02 07:01:26;;;;;;;45.65;31.08;;;13.10;99.90;;;;;;5040458;28;20036;-82
2023/05/02 07:03:53;;;;;;;45.15;30.52;;;13.10;99.90;;;;;;5022369;28;20029;-81
2023/05/02 07:06:20;;;;;;;47.25;32.90;;;13.40;99.90;;;;;;5036226;28;20390;-81
2023/05/02 07:08:46;;;;;;;46.40;30.77;;;13.90;99.90;;;;;;5024987;28;20056;-82
2023/05/02 07:11:12;;;;;;;40.65;28.90;;;14.10;99.90;;;;;;5031635;28;20029;-82
2023/05/02 07:13:38;;;;;;;36.90;27.73;;;15.10;99.90;;;;;;5024823;28;20033;-82
2023/05/02 07:16:05;;;;;;;37.72;28.17;;;16.00;99.90;;;;;;5011785;28;20045;-83
2023/05/02 07:18:31;;;;;;;37.08;27.95;;;16.10;99.90;;;;;;5031822;28;20029;-83
2023/05/02 07:20:58;;;;;;;37.72;27.67;;;16.00;99.90;;;;;;5027384;28;20378;-83
2023/05/02 07:23:24;;;;;;;36.80;27.80;;;15.90;99.90;;;;;;5020138;28;20068;-83
2023/05/02 07:25:50;;;;;;;39.58;28.95;;;15.20;99.90;;;;;;5024345;28;20034;-79
2023/05/02 07:28:16;;;;;;;37.90;27.60;;;14.40;99.90;;;;;;5022313;28;20030;-82
2023/05/02 07:30:42;;;;;;;39.33;28.52;;;14.30;99.90;;;;;;5028325;28;20056;-83
2023/05/02 07:33:08;;;;;;;39.58;29.30;;;14.30;99.90;;;;;;5022362;28;20038;-81
2023/05/02 07:35:34;;;;;;;38.88;28.83;;;13.90;99.90;;;;;;5026262;28;20044;-82
2023/05/02 07:38:01;;;;;;;37.65;28.27;;;14.50;99.90;;;;;;5021897;28;20029;-83
2023/05/02 07:40:27;;;;;;;40.13;28.15;;;14.80;99.90;;;;;;5027396;28;20470;-82
2023/05/02 07:42:53;;;;;;;34.95;26.48;;;15.30;99.90;;;;;;5025145;28;20097;-82
2023/05/02 07:45:19;;;;;;;35.50;26.15;;;15.80;99.90;;;;;;5020392;28;20037;-84
2023/05/02 07:47:46;;;;;;;36.83;28.48;;;15.70;98.10;;;;;;5026502;28;20029;-83
2023/05/02 07:50:12;;;;;;;38.13;27.92;;;14.80;99.90;;;;;;5042612;28;20378;-81
2023/05/02 07:52:38;;;;;;;40.90;28.60;;;14.70;99.90;;;;;;5037431;28;20033;-83
2023/05/02 07:55:05;;;;;;;32.30;24.88;;;14.70;99.90;;;;;;5023919;28;20033;-82
2023/05/02 07:57:31;;;;;;;39.15;27.50;;;15.00;99.90;;;;;;5022046;28;20029;-82
2023/05/02 07:59:58;;;;;;;37.75;26.33;;;15.10;99.90;;;;;;5020124;28;20057;-82
2023/05/02 08:02:24;;;;;;;40.15;27.45;;;15.10;99.90;;;;;;5024800;28;20034;-82
2023/05/02 08:04:51;;;;;;;35.95;26.17;;;15.10;99.90;;;;;;5009807;28;20045;-81
2023/05/02 08:07:17;;;;;;;37.50;26.05;;;14.50;99.90;;;;;;5025066;28;20459;-83
2023/05/02 08:09:45;;;;;;;34.97;25.67;;;14.60;99.90;;;;;;5023810;28;20493;-83
2023/05/02 08:12:11;;;;;;;33.08;25.02;;;14.70;99.90;;;;;;5000369;28;20049;-82
2023/05/02 08:14:37;;;;;;;32.40;23.60;;;14.70;99.90;;;;;;5025368;28;20034;-81
2023/05/02 08:17:03;;;;;;;32.72;25.27;;;15.00;99.90;;;;;;5026184;28;20025;-82
2023/05/02 08:19:30;;;;;;;32.22;24.17;;;15.50;99.90;;;;;;5022433;28;20033;-81
2023/05/02 08:21:58;;;;;;;36.10;25.40;;;15.30;99.90;;;;;;5021463;28;20033;-82
2023/05/02 08:24:24;;;;;;;34.05;25.15;;;15.30;99.90;;;;;;5037344;28;20142;-83
2023/05/02 08:26:50;;;;;;;36.03;25.05;;;15.70;94.50;;;;;;5030929;28;20030;-84
2023/05/02 08:29:16;;;;;;;33.88;24.02;;;15.20;99.90;;;;;;5028775;28;20030;-82
2023/05/02 08:31:43;;;;;;;37.17;26.20;;;15.90;96.70;;;;;;5024880;28;20473;-82
2023/05/02 08:34:09;;;;;;;32.55;23.10;;;15.50;90.20;;;;;;5022689;28;20237;-81
2023/05/02 08:36:36;;;;;;;32.58;24.10;;;15.30;95.40;;;;;;5028333;28;20037;-81
2023/05/02 08:39:02;;;;;;;37.03;24.20;;;14.60;99.90;;;;;;5027772;28;20073;-83
2023/05/02 08:41:30;;;;;;;35.15;22.85;;;15.10;99.90;;;;;;5023367;28;20370;-80
2023/05/02 08:43:57;;;;;;;28.85;18.65;;;15.30;92.20;;;;;;5027384;28;20030;-82
2023/05/02 08:46:25;;;;;;;30.40;18.92;;;14.80;96.00;;;;;;5029962;28;20361;-82
2023/05/02 08:48:52;;;;;;;30.92;21.70;;;14.80;99.90;;;;;;5030307;28;20034;-80
2023/05/02 08:51:20;;;;;;;31.63;21.83;;;15.20;93.60;;;;;;5042353;28;20044;-81
2023/05/02 08:53:47;;;;;;;28.27;22.45;;;15.30;97.30;;;;;;5028344;28;20036;-83
2023/05/02 08:56:13;;;;;;;32.05;24.00;;;15.50;94.60;;;;;;5025468;28;20038;-83
2023/05/02 08:58:40;;;;;;;31.40;22.33;;;15.70;91.80;;;;;;5021633;28;20067;-84
2023/05/02 09:01:14;;;;;;;27.65;20.17;;;16.20;55.80;;;;;;5028165;28;20021;-84
2023/05/02 09:03:43;;;;;;;28.27;19.88;;;15.70;71.10;;;;;;5028999;28;20049;-81
2023/05/02 09:06:13;;;;;;;31.35;21.02;;;15.60;75.20;;;;;;5033382;28;20040;-83
2023/05/02 09:08:40;;;;;;;30.85;21.13;;;15.10;97.90;;;;;;5025191;28;20022;-83
2023/05/02 09:11:09;;;;;;;31.92;21.75;;;15.10;99.90;;;;;;5042390;28;20045;-84
2023/05/02 09:13:39;;;;;;;26.92;19.42;;;15.20;96.60;;;;;;5023072;28;20026;-81
2023/05/02 09:16:16;;;;;;;33.13;23.58;;;15.60;77.00;;;;;;5039434;28;20037;-83
2023/05/02 09:18:44;;;;;;;30.70;21.65;;;15.80;76.10;;;;;;5034382;28;20030;-82
2023/05/02 09:21:19;;;;;;;28.88;20.48;;;16.30;63.50;;;;;;5023674;28;20213;-83
2023/05/02 09:23:47;;;;;;;35.90;25.83;;;16.00;74.30;;;;;;5027248;28;20034;-80
2023/05/02 09:26:16;;;;;;;31.60;22.38;;;15.60;95.00;;;;;;5028330;28;20034;-82
2023/05/02 09:28:55;;;;;;;30.45;22.25;;;15.30;99.90;;;;;;5027071;28;20030;-81
2023/05/02 09:31:29;;;;;;;32.95;23.95;;;15.20;99.90;;;;;;5023900;28;20033;-82
2023/05/02 09:33:55;;;;;;;32.55;24.15;;;15.10;99.90;;;;;;5025823;28;20037;-83
2023/05/02 09:36:23;;;;;;;35.28;23.55;;;15.10;99.90;;;;;;5020213;28;20029;-84
2023/05/02 09:38:50;;;;;;;32.10;21.85;;;15.00;99.90;;;;;;5039746;28;20030;-82
2023/05/02 09:41:18;;;;;;;34.80;23.65;;;15.00;99.90;;;;;;5024214;28;20038;-83
2023/05/02 09:43:56;;;;;;;32.78;23.35;;;14.80;99.90;;;;;;5019878;28;20362;-83
2023/05/02 09:46:22;;;;;;;34.25;22.92;;;14.60;99.90;;;;;;5032789;28;20501;-82
2023/05/02 09:48:56;;;;;;;29.73;20.52;;;14.60;99.90;;;;;;5020768;28;20041;-79
2023/05/02 09:51:24;;;;;;;34.28;23.23;;;14.40;99.90;;;;;;5023798;28;20036;-84
2023/05/02 09:53:51;;;;;;;30.23;20.77;;;14.20;99.90;;;;;;5025154;28;20037;-84
2023/05/02 09:56:17;;;;;;;32.47;20.95;;;14.00;99.90;;;;;;5028720;28;20343;-82
2023/05/02 09:58:44;;;;;;;28.08;18.33;;;14.00;99.90;;;;;;5024343;28;20030;-81
2023/05/02 10:01:20;;;;;;;27.30;17.63;;;13.80;99.90;;;;;;5027407;28;20025;-83
2023/05/02 10:03:48;;;;;;;26.70;19.02;;;14.00;99.90;;;;;;5026346;28;20025;-82
2023/05/02 10:06:16;;;;;;;25.73;17.88;;;14.20;99.90;;;;;;5031122;28;20490;-83
2023/05/02 10:08:46;;;;;;;26.38;16.60;;;14.20;99.90;;;;;;5030081;28;20029;-82
2023/05/02 10:11:13;;;;;;;34.13;18.65;;;14.30;99.90;;;;;;5022812;28;20516;-81
2023/05/02 10:13:42;;;;;;;25.85;17.25;;;14.20;99.90;;;;;;5029700;28;20034;-87
2023/05/02 10:16:11;;;;;;;23.65;15.93;;;14.50;99.90;;;;;;5022689;28;20045;-81
2023/05/02 10:18:49;;;;;;;26.00;15.70;;;15.20;99.90;;;;;;5025706;28;20034;-76
2023/05/02 10:21:19;;;;;;;21.95;14.60;;;15.30;83.70;;;;;;5028272;28;20037;-82
2023/05/02 10:23:46;;;;;;;22.00;14.20;;;14.90;95.20;;;;;;5028146;28;20443;-84
2023/05/02 10:26:14;;;;;;;20.48;13.18;;;15.30;99.00;;;;;;5021529;28;20187;-81
2023/05/02 10:28:41;;;;;;;20.65;12.27;;;15.90;78.90;;;;;;5027385;28;20034;-84
2023/05/02 10:31:12;;;;;;;16.85;10.60;;;16.10;50.30;;;;;;5020623;28;20038;-83
2023/05/02 10:33:41;;;;;;;14.57;9.95;;;16.40;23.50;;;;;;5025253;28;20469;-81
2023/05/02 10:36:11;;;;;;;14.43;9.80;;;16.40;1.00;;;;;;5023984;28;20040;-85
2023/05/02 10:38:38;;;;;;;18.33;11.02;;;16.20;1.00;;;;;;5025302;28;20037;-85
2023/05/02 10:41:14;;;;;;;21.02;12.00;;;16.00;10.20;;;;;;5026219;28;20033;-82
2023/05/02 10:43:44;;;;;;;19.70;11.30;;;16.00;23.10;;;;;;5020725;28;20041;-79
2023/05/02 10:46:30;;;;;;;18.05;11.40;;;16.20;22.90;;;;;;5034474;28;20046;-85
2023/05/02 10:49:08;;;;;;;16.13;9.07;;;16.50;22.40;;;;;;5049389;28;20029;-85
2023/05/02 10:51:36;;;;;;;13.63;8.35;;;17.00;1.00;;;;;;5051709;28;20030;-84
2023/05/02 10:54:22;;;;;;;14.70;9.38;;;16.80;1.00;;;;;;5053089;28;20034;-87
2023/05/02 10:57:06;;;;;;;15.60;9.30;;;16.50;2.20;;;;;;5048313;28;20049;-84
2023/05/02 10:59:37;;;;;;;13.02;9.40;;;16.60;7.00;;;;;;5046376;28;20026;-83
2023/05/02 11:02:05;;;;;;;13.05;9.63;;;16.70;17.20;;;;;;5049769;28;20143;-85
2023/05/02 11:05:05;;;;;;;14.73;9.85;;;17.00;1.00;;;;;;5030794;28;20033;-84
2023/05/02 11:07:41;;;;;;;;;;;16.40;4.80;;;;;;5022730;28;20034;-84
2023/05/02 11:10:16;;;;;;;14.52;9.55;;;16.40;26.80;;;;;;5018230;28;19912;-88
2023/05/02 11:12:47;;;;;;;16.73;10.88;;;17.00;8.70;;;;;;5026448;28;20371;-84
2023/05/02 11:15:14;;;;;;;17.08;10.18;;;16.60;8.30;;;;;;5024665;28;20450;-83
2023/05/02 11:18:05;;;;;;;13.60;8.63;;;16.10;25.70;;;;;;5023901;28;20451;-84
2023/05/02 11:20:31;;;;;;;;;;;15.80;27.10;;;;;;5026094;28;20366;-86
2023/05/02 11:23:20;;;;;;;14.07;8.15;;;15.90;22.40;;;;;;5023844;28;19909;-85
2023/05/02 11:25:55;;;;;;;13.30;9.18;;;15.60;7.70;;;;;;5027529;28;20446;-84
2023/05/02 11:28:36;;;;;;;14.40;9.20;;;15.90;32.10;;;;;;5039832;28;20032;-85
2023/05/02 11:31:05;;;;;;;11.85;7.45;;;16.20;9.80;;;;;;5025154;28;20045;-85
2023/05/02 11:33:31;;;;;;;11.63;6.82;;;16.80;1.00;;;;;;5019704;28;20048;-85
2023/05/02 11:35:57;;;;;;;9.82;5.90;;;17.20;1.00;;;;;;5023886;28;20037;-86
2023/05/02 11:38:25;;;;;;;11.52;6.90;;;16.90;1.00;;;;;;5027365;28;20026;-83
2023/05/02 11:40:58;;;;;;;11.85;6.55;;;17.10;1.00;;;;;;5020612;28;20029;-84
2023/05/02 11:43:27;;;;;;;10.07;6.45;;;17.20;1.00;;;;;;5026420;28;20053;-84
2023/05/02 11:45:55;;;;;;;10.45;6.95;;;17.20;1.00;;;;;;5041377;28;20038;-88
2023/05/02 11:48:22;;;;;;;11.70;6.97;;;17.00;1.00;;;;;;5037684;28;20045;-82
2023/05/02 11:50:54;;;;;;;16.42;8.00;;;17.00;1.00;;;;;;5017513;28;20435;-86
2023/05/02 11:53:23;;;;;;;11.55;6.18;;;16.20;1.00;;;;;;5026974;28;20052;-84
2023/05/02 11:55:57;;;;;;;9.65;5.90;;;16.30;1.00;;;;;;5015810;28;20045;-85
2023/05/02 11:58:28;;;;;;;9.00;5.78;;;16.30;1.00;;;;;;5026848;28;20041;-84
2023/05/02 12:00:55;;;;;;;10.13;5.97;;;16.80;1.00;;;;;;5026944;28;20030;-83
2023/05/02 12:03:27;;;;;;;8.95;5.32;;;16.80;1.00;;;;;;5027708;28;20021;-83
2023/05/02 12:05:54;;;;;;;10.48;5.53;;;16.70;1.00;;;;;;5025129;28;20037;-84
2023/05/02 12:08:23;;;;;;;7.47;5.45;;;16.80;1.00;;;;;;5029902;28;20040;-85
2023/05/02 12:10:51;;;;;;;8.20;5.35;;;17.00;1.00;;;;;;5035038;28;20486;-86
2023/05/02 12:13:18;;;;;;;8.13;5.25;;;16.80;1.00;;;;;;5044729;28;20325;-84
2023/05/02 12:15:44;;;;;;;6.53;3.75;;;16.90;1.00;;;;;;5024934;28;20033;-83
2023/05/02 12:18:11;;;;;;;8.25;4.90;;;16.90;1.00;;;;;;5029236;28;20025;-87
2023/05/02 12:20:38;;;;;;;9.52;5.65;;;16.80;1.00;;;;;;5027993;28;20367;-83
2023/05/02 12:23:09;;;;;;;10.27;5.57;;;16.60;1.00;;;;;;5029668;28;20037;-83
2023/05/02 12:25:41;;;;;;;;;;;16.60;1.00;;;;;;5028591;28;20044;-85
2023/05/02 12:28:09;;;;;;;8.23;4.93;;;16.80;1.00;;;;;;5030052;28;19912;-83
2023/05/02 12:30:37;;;;;;;7.65;4.82;;;16.90;1.00;;;;;;5032633;28;20034;-84
2023/05/02 12:33:05;;;;;;;8.50;4.40;;;16.80;1.00;;;;;;5034146;28;20040;-82
2023/05/02 12:35:32;;;;;;;7.78;4.88;;;16.60;1.00;;;;;;5029143;28;20034;-83
2023/05/02 12:38:15;;;;;;;8.00;4.43;;;16.70;1.00;;;;;;5030979;28;20143;-83
2023/05/02 12:40:50;;;;;;;7.72;5.05;;;16.80;1.00;;;;;;5030808;28;20037;-85
2023/05/02 12:43:17;;;;;;;8.35;4.70;;;16.90;1.00;;;;;;5031092;28;20045;-83
2023/05/02 12:45:43;;;;;;;7.25;5.22;;;17.10;1.00;;;;;;5027497;28;20056;-82
2023/05/02 12:48:26;;;;;;;8.10;5.05;;;17.40;1.00;;;;;;5036329;28;20038;-86
2023/05/02 12:50:54;;;;;;;8.68;5.63;;;17.00;1.00;;;;;;5041281;28;20113;-85
2023/05/02 12:53:40;;;;;;;8.15;4.78;;;17.10;1.00;;;;;;5025976;28;20041;-83
2023/05/02 12:56:07;;;;;;;7.50;4.68;;;17.30;1.00;;;;;;5027929;28;20029;-84
2023/05/02 12:58:40;;;;;;;7.75;4.53;;;17.60;1.00;;;;;;5023110;28;20366;-83